Time;durP1;ratioP1;P1;durP2;ratioP2;P2;SDS_P1;SDS_P2;PMS_P1;PMS_P2;Temp;Humidity;BMP_temperature;BMP_pressure;BME280_temperature;BME280_humidity;BME280_pressure;Samples;Min_cycle;Max_cycle;Signal;HPM_P1;HPM_P2
2022/01/29 00:02:36;;;;;;;16.60;3.10;;;;;;;1.45;100.00;99600.88;10443638;28;20701;-80
2022/01/29 00:07:42;;;;;;;16.23;3.13;;;;;;;1.46;100.00;99581.38;10450793;28;20056;-79
2022/01/29 00:12:45;;;;;;;14.60;3.10;;;;;;;1.53;100.00;99580.13;10458644;28;20051;-81
2022/01/29 00:17:48;;;;;;;15.45;2.97;;;;;;;1.49;100.00;99564.41;10448855;28;20061;-81
2022/01/29 00:22:53;;;;;;;17.42;3.10;;;;;;;1.48;100.00;99544.94;10446463;28;20071;-82
2022/01/29 00:27:59;;;;;;;11.77;2.72;;;;;;;1.44;100.00;99546.03;10443767;28;20413;-81
2022/01/29 00:33:02;;;;;;;18.55;3.50;;;;;;;1.39;100.00;99545.41;10447853;28;20116;-80
2022/01/29 00:38:06;;;;;;;15.98;3.60;;;;;;;1.41;100.00;99540.03;10431989;28;20045;-81
2022/01/29 00:43:09;;;;;;;15.70;2.58;;;;;;;1.46;100.00;99530.91;10470503;23;20140;-84
2022/01/29 00:48:13;;;;;;;18.67;3.20;;;;;;;1.52;100.00;99535.91;10419861;28;20049;-82
2022/01/29 00:53:18;;;;;;;15.88;2.95;;;;;;;1.57;100.00;99530.34;10404887;28;20050;-83
2022/01/29 00:58:21;;;;;;;14.43;3.22;;;;;;;1.54;100.00;99512.78;10412444;28;20486;-84
2022/01/29 01:03:24;;;;;;;17.52;3.15;;;;;;;1.56;100.00;99509.19;10393145;28;20128;-83
2022/01/29 01:08:28;;;;;;;14.38;3.10;;;;;;;1.58;100.00;99518.78;10364371;23;20046;-59
2022/01/29 01:13:32;;;;;;;15.88;2.90;;;;;;;1.60;100.00;99510.72;10344587;28;20079;-61
2022/01/29 01:18:36;;;;;;;15.45;3.20;;;;;;;1.61;100.00;99523.06;10353124;28;20045;-58
2022/01/29 01:23:40;;;;;;;12.75;2.97;;;;;;;1.62;100.00;99498.25;10352656;28;20046;-62
2022/01/29 01:28:43;;;;;;;18.92;3.25;;;;;;;1.65;100.00;99485.66;10364612;28;20049;-62
2022/01/29 01:33:48;;;;;;;13.52;2.85;;;;;;;1.65;100.00;99485.66;10368543;28;20155;-59
2022/01/29 01:38:59;;;;;;;15.55;3.08;;;;;;;1.66;100.00;99473.25;10351096;28;20072;-60
2022/01/29 01:44:03;;;;;;;16.77;3.33;;;;;;;1.66;100.00;99457.31;10352760;28;20045;-60
2022/01/29 01:49:07;;;;;;;15.95;2.92;;;;;;;1.68;100.00;99439.50;10350398;28;20054;-61
2022/01/29 01:54:12;;;;;;;12.25;2.38;;;;;;;1.71;100.00;99438.47;10350823;28;20414;-62
2022/01/29 01:59:18;;;;;;;16.35;3.20;;;;;;;1.72;100.00;99416.28;10348534;28;20058;-61
2022/01/29 02:04:21;;;;;;;11.43;2.80;;;;;;;1.74;100.00;99409.94;10351969;28;20052;-61
2022/01/29 02:09:26;;;;;;;15.93;3.55;;;;;;;1.75;100.00;99413.47;10351330;28;20089;-60
2022/01/29 02:14:31;;;;;;;12.55;2.78;;;;;;;1.76;100.00;99402.75;10351968;28;20042;-62
2022/01/29 02:19:36;;;;;;;14.60;2.90;;;;;;;1.78;100.00;99382.28;10351848;28;20052;-62
2022/01/29 02:24:42;;;;;;;12.93;2.53;;;;;;;1.76;100.00;99384.16;10351165;28;20041;-62
2022/01/29 02:29:49;;;;;;;13.80;2.83;;;;;;;1.79;100.00;99361.88;10351564;28;20057;-63
2022/01/29 02:34:52;;;;;;;12.93;3.03;;;;;;;1.79;100.00;99378.69;10345219;28;20479;-62
2022/01/29 02:39:57;;;;;;;12.32;3.08;;;;;;;1.81;100.00;99374.16;10350143;28;20050;-61
2022/01/29 02:45:00;;;;;;;10.48;2.65;;;;;;;1.81;100.00;99371.50;10349900;28;20045;-61
2022/01/29 02:50:04;;;;;;;11.15;2.60;;;;;;;1.82;100.00;99357.25;10350723;28;20044;-62
2022/01/29 02:55:09;;;;;;;12.57;2.70;;;;;;;1.88;100.00;99349.88;10351511;28;20050;-60
2022/01/29 03:00:13;;;;;;;12.98;3.00;;;;;;;1.89;100.00;99354.28;10365332;28;20147;-61
2022/01/29 03:05:17;;;;;;;11.95;3.15;;;;;;;1.90;100.00;99348.00;10348493;28;20065;-60
2022/01/29 03:10:23;;;;;;;14.52;4.03;;;;;;;1.94;100.00;99333.63;10356355;28;20050;-66
2022/01/29 03:15:26;;;;;;;10.68;2.97;;;;;;;1.94;100.00;99333.63;10356152;28;20988;-57
2022/01/29 03:20:30;;;;;;;13.75;2.85;;;;;;;1.96;100.00;99331.72;10355792;28;20054;-62
2022/01/29 03:25:34;;;;;;;11.93;2.95;;;;;;;1.99;100.00;99310.28;10358546;28;20120;-63
2022/01/29 03:30:38;;;;;;;7.47;2.60;;;;;;;2.04;100.00;99299.41;10350171;28;20046;-66
2022/01/29 03:35:42;;;;;;;10.15;3.00;;;;;;;2.06;100.00;99290.41;10354411;28;20046;-62
2022/01/29 03:40:49;;;;;;;8.88;2.83;;;;;;;2.07;100.00;99275.31;10356361;28;20923;-62
2022/01/29 03:45:52;;;;;;;9.00;3.13;;;;;;;2.07;100.00;99264.69;10347968;28;20116;-64
2022/01/29 03:50:55;;;;;;;11.63;3.53;;;;;;;2.06;100.00;99244.38;10357392;28;20520;-63
2022/01/29 03:56:02;;;;;;;9.68;3.55;;;;;;;2.04;100.00;99252.44;10355604;28;20069;-63
2022/01/29 04:01:05;;;;;;;11.52;3.83;;;;;;;2.06;100.00;99229.25;10356344;28;20044;-60
2022/01/29 04:06:12;;;;;;;9.45;3.90;;;;;;;2.06;100.00;99215.97;10355032;28;20050;-65
2022/01/29 04:11:17;;;;;;;11.20;4.13;;;;;;;2.09;100.00;99213.16;10351749;28;20034;-61
2022/01/29 04:16:21;;;;;;;10.05;4.20;;;;;;;2.13;100.00;99184.56;10354930;28;20052;-63
2022/01/29 04:21:24;;;;;;;10.35;4.40;;;;;;;2.13;100.00;99176.59;10354211;28;20129;-63
2022/01/29 04:26:33;;;;;;;9.23;4.53;;;;;;;2.17;100.00;99177.31;10356385;28;20502;-61
2022/01/29 04:31:54;;;;;;;7.90;4.25;;;;;;;2.20;100.00;99180.63;10368840;28;20042;-62
2022/01/29 04:36:58;;;;;;;9.55;4.70;;;;;;;2.27;100.00;99181.13;10355472;28;20045;-62
2022/01/29 04:42:03;;;;;;;9.35;4.80;;;;;;;2.34;100.00;99155.03;10350746;28;20038;-63
2022/01/29 04:47:06;;;;;;;6.35;4.38;;;;;;;2.35;100.00;99151.44;10355151;28;20409;-61
2022/01/29 04:52:12;;;;;;;6.65;3.95;;;;;;;2.43;100.00;99134.06;10354116;28;20097;-66
2022/01/29 04:57:17;;;;;;;8.65;3.83;;;;;;;2.45;100.00;99134.81;10370090;28;20056;-61
2022/01/29 05:02:21;;;;;;;7.18;4.50;;;;;;;2.50;100.00;99139.03;10353844;28;20072;-65
2022/01/29 05:07:24;;;;;;;6.88;4.32;;;;;;;2.54;100.00;99137.88;10353897;28;20054;-63
2022/01/29 05:12:35;;;;;;;10.05;4.60;;;;;;;2.56;100.00;99144.84;10348449;28;20042;-62
2022/01/29 05:28:21;;;;;;;7.55;4.72;;;;;;;2.67;100.00;99140.66;10354375;28;20046;-64
2022/01/29 05:33:24;;;;;;;6.43;4.30;;;;;;;2.69;100.00;99120.16;10352668;28;20034;-64
2022/01/29 05:38:27;;;;;;;7.20;5.00;;;;;;;2.71;100.00;99115.56;10352853;28;20655;-64
2022/01/29 05:43:33;;;;;;;9.48;5.60;;;;;;;2.71;100.00;99115.56;10353238;28;20038;-67
2022/01/29 05:48:36;;;;;;;8.18;4.97;;;;;;;2.71;100.00;99100.47;10350565;28;20058;-66
2022/01/29 05:53:40;;;;;;;7.28;5.28;;;;;;;2.73;100.00;99101.22;10353238;28;20052;-62
2022/01/29 05:58:44;;;;;;;9.27;5.57;;;;;;;2.75;100.00;99082.50;10352479;28;20503;-64
2022/01/29 06:03:48;;;;;;;10.30;5.20;;;;;;;2.78;100.00;99091.16;10344531;28;20498;-62
2022/01/29 06:08:53;;;;;;;10.32;6.15;;;;;;;2.75;100.00;99086.03;10352196;28;20393;-64
2022/01/29 06:13:58;;;;;;;11.05;6.22;;;;;;;2.71;100.00;99073.84;10348908;28;20049;-64
2022/01/29 06:19:01;;;;;;;10.75;6.43;;;;;;;2.70;100.00;99058.00;10350151;28;20490;-63
2022/01/29 06:24:05;;;;;;;8.25;6.30;;;;;;;2.69;100.00;99059.78;10351230;28;20059;-63
2022/01/29 06:29:09;;;;;;;9.60;6.90;;;;;;;2.67;100.00;99039.56;10352135;28;20049;-65
2022/01/29 06:34:13;;;;;;;14.25;7.70;;;;;;;2.65;100.00;99038.78;10350883;28;20278;-67
2022/01/29 06:39:18;;;;;;;11.57;7.05;;;;;;;2.62;100.00;99032.72;10351211;28;20112;-63
2022/01/29 06:44:23;;;;;;;9.82;7.22;;;;;;;2.60;100.00;99017.81;10355221;28;20052;-64
2022/01/29 06:49:26;;;;;;;11.93;7.80;;;;;;;2.55;100.00;99020.75;10356244;28;20057;-66
2022/01/29 06:54:29;;;;;;;12.57;7.75;;;;;;;2.55;100.00;99036.72;10359884;28;20058;-64
2022/01/29 06:59:33;;;;;;;11.15;7.68;;;;;;;2.52;100.00;99020.94;10428251;23;20491;-81
2022/01/29 07:04:40;;;;;;;9.63;6.93;;;;;;;2.55;100.00;99011.91;10423462;28;20049;-83
2022/01/29 07:09:43;;;;;;;8.73;7.05;;;;;;;2.55;100.00;99003.91;10410202;28;20057;-78
2022/01/29 07:14:49;;;;;;;8.35;6.28;;;;;;;2.57;100.00;98996.72;10415137;28;20053;-81
2022/01/29 07:19:53;;;;;;;8.70;6.45;;;;;;;2.56;100.00;98984.34;10439435;28;20048;-80
2022/01/29 07:24:56;;;;;;;8.57;6.32;;;;;;;2.54;100.00;98980.94;10432615;28;20045;-78
2022/01/29 07:30:01;;;;;;;7.43;5.85;;;;;;;2.56;100.00;98961.28;10428623;22;20044;-63
2022/01/29 07:35:05;;;;;;;7.53;5.70;;;;;;;2.56;100.00;98961.28;10418931;28;20359;-61
2022/01/29 07:40:10;;;;;;;11.55;5.93;;;;;;;2.56;100.00;98952.44;10418926;28;20402;-61
2022/01/29 07:45:15;;;;;;;9.32;5.95;;;;;;;2.60;100.00;98959.28;10420133;28;20160;-65
2022/01/29 07:50:18;;;;;;;7.05;5.28;;;;;;;2.63;100.00;98964.41;10420710;28;20084;-60
2022/01/29 07:55:21;;;;;;;6.13;4.95;;;;;;;2.68;100.00;98956.13;10419570;28;20128;-61
2022/01/29 08:00:26;;;;;;;7.15;5.18;;;;;;;2.71;100.00;98948.81;10422462;28;20459;-60
2022/01/29 08:05:30;;;;;;;6.75;5.15;;;;;;;2.75;100.00;98942.34;10423275;28;20049;-53
2022/01/29 08:10:33;;;;;;;7.32;4.90;;;;;;;2.82;100.00;98931.28;10421120;28;20060;-61
2022/01/29 08:15:38;;;;;;;6.63;5.15;;;;;;;2.87;100.00;98914.06;10422872;28;20413;-61
2022/01/29 08:20:41;;;;;;;7.82;5.53;;;;;;;2.95;100.00;98926.00;10423144;28;20564;-60
2022/01/29 08:25:45;;;;;;;6.80;4.85;;;;;;;3.00;100.00;98907.94;10418923;28;20049;-66
2022/01/29 08:30:49;;;;;;;6.18;4.95;;;;;;;3.03;100.00;98886.47;10420084;28;20148;-63
2022/01/29 08:35:53;;;;;;;7.25;4.70;;;;;;;3.12;100.00;98885.00;10419433;28;20466;-62
2022/01/29 08:40:58;;;;;;;6.15;4.45;;;;;;;3.18;100.00;98879.25;10420300;28;20048;-62
2022/01/29 08:46:02;;;;;;;5.90;4.30;;;;;;;3.30;100.00;98889.06;10421315;28;20041;-58
2022/01/29 08:51:05;;;;;;;6.03;4.40;;;;;;;3.37;100.00;98890.34;10419981;28;20049;-65
2022/01/29 08:56:09;;;;;;;5.75;4.53;;;;;;;3.46;100.00;98890.72;10424102;28;20045;-62
2022/01/29 09:01:24;;;;;;;5.90;4.32;;;;;;;3.51;100.00;98873.44;10415384;28;20139;-59
2022/01/29 09:06:42;;;;;;;5.85;4.18;;;;;;;3.61;100.00;98881.66;10417093;28;20132;-60
2022/01/29 09:11:46;;;;;;;6.60;4.07;;;;;;;3.64;100.00;98886.75;10417862;28;20803;-63
2022/01/29 09:16:52;;;;;;;3.97;3.58;;;;;;;3.68;100.00;98869.63;10418464;28;20428;-58
2022/01/29 09:21:55;;;;;;;6.03;4.32;;;;;;;3.72;100.00;98878.25;10417787;28;20061;-66
2022/01/29 09:26:59;;;;;;;5.03;3.83;;;;;;;3.78;100.00;98875.13;10417051;28;20067;-62
2022/01/29 09:32:05;;;;;;;6.57;3.90;;;;;;;3.84;100.00;98866.72;10411877;28;20057;-60
2022/01/29 09:37:08;;;;;;;5.50;4.07;;;;;;;3.91;100.00;98882.28;10413289;28;20475;-58
2022/01/29 09:42:11;;;;;;;4.85;3.42;;;;;;;4.02;100.00;98885.03;10414439;28;20461;-60
2022/01/29 09:47:17;;;;;;;3.40;2.55;;;;;;;4.18;100.00;98865.31;10416761;28;20072;-59
2022/01/29 09:52:20;;;;;;;2.63;2.30;;;;;;;4.40;100.00;98859.28;10415949;28;20056;-60
2022/01/29 09:57:23;;;;;;;2.28;2.00;;;;;;;4.47;100.00;98871.22;10419321;28;20053;-63
2022/01/29 10:02:28;;;;;;;2.10;1.77;;;;;;;4.59;100.00;98840.97;10413602;28;20295;-63
2022/01/29 10:07:33;;;;;;;2.30;1.52;;;;;;;4.66;100.00;98829.81;10417222;28;20120;-63
2022/01/29 10:12:38;;;;;;;1.52;1.30;;;;;;;4.74;100.00;98817.59;10416926;28;20060;-62
2022/01/29 10:17:45;;;;;;;1.10;1.00;;;;;;;4.84;100.00;98816.91;10417029;28;20120;-62
2022/01/29 10:22:52;;;;;;;1.15;0.90;;;;;;;4.99;100.00;98828.28;10417612;28;20041;-57
2022/01/29 10:28:11;;;;;;;1.10;0.90;;;;;;;5.03;100.00;98811.91;10415152;28;20488;-59
2022/01/29 10:33:20;;;;;;;0.60;0.60;;;;;;;5.12;100.00;98809.50;10416159;28;20054;-62
2022/01/29 10:38:24;;;;;;;0.70;0.70;;;;;;;5.25;100.00;98792.41;10412706;28;20083;-60
2022/01/29 10:43:29;;;;;;;0.63;0.63;;;;;;;5.29;100.00;98768.13;10417814;28;20464;-60
2022/01/29 10:48:51;;;;;;;1.65;0.60;;;;;;;5.31;100.00;98767.03;10419520;28;20045;-60
2022/01/29 10:53:55;;;;;;;0.45;0.43;;;;;;;5.35;100.00;98799.72;10435302;28;20050;-62
2022/01/29 10:58:58;;;;;;;6.63;0.63;;;;;;;5.37;100.00;98777.25;10418034;28;20401;-61
2022/01/29 11:04:02;;;;;;;0.40;0.40;;;;;;;5.42;100.00;98806.28;10414042;28;20523;-61
2022/01/29 11:09:05;;;;;;;0.50;0.50;;;;;;;5.46;100.00;98772.16;10412974;28;20041;-63
2022/01/29 11:14:11;;;;;;;0.65;0.50;;;;;;;5.48;100.00;98744.34;10420856;28;20053;-65
2022/01/29 11:19:17;;;;;;;0.50;0.50;;;;;;;5.47;100.00;98747.97;10420997;28;20057;-61
2022/01/29 11:24:24;;;;;;;0.60;0.60;;;;;;;5.51;100.00;98720.06;10416767;28;20060;-61
2022/01/29 11:29:31;;;;;;;0.80;0.70;;;;;;;5.55;100.00;98742.91;10421182;28;20055;-62
2022/01/29 11:35:13;;;;;;;0.63;0.60;;;;;;;5.56;100.00;98711.66;10427371;28;20037;-61
2022/01/29 11:40:18;;;;;;;;;;;;;;;5.55;100.00;98724.19;10422452;28;20071;-61
2022/01/29 11:45:46;;;;;;;1.08;0.80;;;;;;;5.56;100.00;98725.03;10427877;28;19925;-55
2022/01/29 11:50:52;;;;;;;0.90;0.85;;;;;;;5.60;100.00;98717.59;10425837;28;20037;-56
2022/01/29 11:55:56;;;;;;;1.10;1.00;;;;;;;5.66;100.00;98695.75;10426243;28;20041;-58
2022/01/29 12:01:02;;;;;;;0.85;0.85;;;;;;;5.69;100.00;98679.47;10425537;28;20049;-65
2022/01/29 12:06:27;;;;;;;1.58;1.10;;;;;;;5.74;100.00;98669.25;10475940;28;20048;-65
2022/01/29 12:11:34;;;;;;;0.88;0.88;;;;;;;5.77;100.00;98660.13;10475804;28;20048;-67
2022/01/29 12:16:51;;;;;;;0.90;0.90;;;;;;;5.77;100.00;98650.28;10476722;28;20188;-64
2022/01/29 12:21:55;;;;;;;1.27;0.93;;;;;;;5.78;100.00;98635.09;10428991;28;20044;-63
2022/01/29 12:26:59;;;;;;;0.82;0.82;;;;;;;5.80;100.00;98623.31;10420648;28;20322;-63
2022/01/29 12:32:03;;;;;;;1.20;1.10;;;;;;;5.84;100.00;98614.03;10422638;28;20136;-61
2022/01/29 12:37:15;;;;;;;1.10;1.00;;;;;;;5.90;100.00;98585.09;10421408;28;20413;-63
2022/01/29 12:42:28;;;;;;;1.52;1.00;;;;;;;5.91;100.00;98587.63;10419414;28;20056;-64
2022/01/29 12:47:33;;;;;;;1.00;1.00;;;;;;;5.96;100.00;98577.44;10415538;28;20063;-64
2022/01/29 12:52:38;;;;;;;1.20;1.10;;;;;;;6.01;100.00;98577.06;10417470;28;20099;-60
2022/01/29 12:57:43;;;;;;;0.98;0.98;;;;;;;6.05;100.00;98573.16;10428794;23;20053;-63
2022/01/29 13:02:48;;;;;;;1.30;1.20;;;;;;;6.09;100.00;98553.19;10418881;28;20051;-64
2022/01/29 13:07:53;;;;;;;1.23;1.13;;;;;;;6.12;100.00;98544.91;10419824;28;20044;-63
2022/01/29 13:12:56;;;;;;;1.20;1.10;;;;;;;6.17;100.00;98531.97;10417838;28;20154;-64
2022/01/29 13:18:00;;;;;;;1.33;1.10;;;;;;;6.15;100.00;98528.63;10416582;28;20463;-64
2022/01/29 13:23:05;;;;;;;0.90;0.90;;;;;;;6.15;100.00;98520.59;10407829;28;20049;-63
2022/01/29 13:28:12;;;;;;;1.10;1.00;;;;;;;6.15;100.00;98498.31;10411352;28;20216;-64
2022/01/29 13:33:18;;;;;;;1.00;1.00;;;;;;;6.14;100.00;98510.88;10408275;28;20052;-64
2022/01/29 13:38:24;;;;;;;1.05;0.98;;;;;;;6.16;100.00;98516.94;10418309;28;20516;-62
2022/01/29 13:43:34;;;;;;;0.88;0.88;;;;;;;6.15;100.00;98496.50;10414861;28;20129;-63
2022/01/29 13:48:44;;;;;;;1.13;1.00;;;;;;;6.14;100.00;98485.94;10411969;28;20056;-63
2022/01/29 13:53:48;;;;;;;1.17;1.00;;;;;;;6.14;100.00;98481.44;10411019;28;20037;-63
2022/01/29 13:58:54;;;;;;;1.10;1.00;;;;;;;6.14;100.00;98478.75;10410552;28;20089;-63
2022/01/29 14:03:57;;;;;;;1.20;1.08;;;;;;;6.13;100.00;98471.72;10409789;28;20072;-63
2022/01/29 14:09:36;;;;;;;1.42;1.10;;;;;;;6.16;100.00;98450.06;10404435;28;20057;-64
2022/01/29 14:14:50;;;;;;;1.15;1.05;;;;;;;6.16;100.00;98447.38;10278965;28;20169;-65
2022/01/29 14:19:56;;;;;;;1.17;1.08;;;;;;;6.17;100.00;98459.75;10378615;28;20064;-63
2022/01/29 14:25:07;;;;;;;1.10;1.00;;;;;;;6.10;100.00;98431.84;10406422;28;20147;-64
2022/01/29 14:30:11;;;;;;;1.10;1.00;;;;;;;6.13;100.00;98434.28;10410632;28;20059;-63
2022/01/29 14:35:16;;;;;;;0.95;0.93;;;;;;;6.09;100.00;98435.50;10412059;28;20038;-65
2022/01/29 14:40:20;;;;;;;1.02;1.00;;;;;;;6.06;100.00;98397.47;10410933;28;20044;-62
2022/01/29 14:45:27;;;;;;;1.20;1.10;;;;;;;6.06;100.00;98392.13;10405298;28;20045;-61
2022/01/29 14:50:30;;;;;;;1.25;0.90;;;;;;;6.12;100.00;98380.88;10404044;28;20136;-63
2022/01/29 14:55:35;;;;;;;0.95;0.80;;;;;;;6.15;100.00;98359.22;10396119;28;20155;-60
2022/01/29 15:00:39;;;;;;;0.70;0.70;;;;;;;6.15;100.00;98384.16;10408184;28;20434;-61
2022/01/29 15:05:42;;;;;;;0.80;0.80;;;;;;;6.16;100.00;98355.56;10419674;28;20347;-63
2022/01/29 15:10:47;;;;;;;1.15;0.90;;;;;;;6.15;100.00;98338.69;10413493;28;20038;-62
2022/01/29 15:15:50;;;;;;;0.95;0.80;;;;;;;6.16;100.00;98343.06;10418511;28;20957;-62
2022/01/29 15:20:54;;;;;;;2.55;0.75;;;;;;;6.19;100.00;98343.75;10417651;28;20039;-64
2022/01/29 15:25:59;;;;;;;0.60;0.60;;;;;;;6.24;100.00;98346.88;10407291;28;20071;-64
2022/01/29 15:31:03;;;;;;;0.63;0.60;;;;;;;6.29;100.00;98372.25;10411658;28;20144;-65
2022/01/29 15:36:08;;;;;;;0.52;0.52;;;;;;;6.28;100.00;98356.34;10413646;28;20060;-65
2022/01/29 15:41:13;;;;;;;1.02;0.70;;;;;;;6.34;100.00;98353.09;10413380;28;20581;-65
2022/01/29 15:46:16;;;;;;;0.90;0.68;;;;;;;6.11;100.00;98364.00;10411917;28;20133;-64
2022/01/29 15:51:19;;;;;;;0.75;0.75;;;;;;;6.08;100.00;98352.72;10411633;28;20041;-65
2022/01/29 15:56:24;;;;;;;1.10;0.98;;;;;;;5.90;100.00;98339.09;10411225;28;20048;-65
2022/01/29 16:01:29;;;;;;;1.20;1.10;;;;;;;5.82;100.00;98310.38;10410403;28;20632;-64
2022/01/29 16:06:37;;;;;;;1.23;1.13;;;;;;;5.76;100.00;98327.78;10406496;28;20053;-64
2022/01/29 16:11:42;;;;;;;0.90;0.80;;;;;;;5.77;100.00;98334.81;10404866;28;20136;-64
2022/01/29 16:16:46;;;;;;;0.40;0.40;;;;;;;6.21;100.00;98352.50;10413379;28;20444;-63
2022/01/29 16:21:49;;;;;;;0.70;0.45;;;;;;;6.27;100.00;98344.78;10414894;28;20788;-63
2022/01/29 16:26:55;;;;;;;0.50;0.50;;;;;;;6.30;100.00;98331.13;10417532;28;20117;-64
2022/01/29 16:31:59;;;;;;;0.40;0.40;;;;;;;6.41;100.00;98343.53;10407190;28;20045;-63
2022/01/29 16:37:05;;;;;;;0.60;0.60;;;;;;;6.42;100.00;98318.47;10419035;28;20136;-64
2022/01/29 16:42:11;;;;;;;0.80;0.52;;;;;;;6.56;100.00;98319.06;10412872;28;20110;-64
2022/01/29 16:47:16;;;;;;;0.50;0.50;;;;;;;6.70;100.00;98291.91;10408787;28;20068;-64
2022/01/29 16:52:22;;;;;;;0.70;0.60;;;;;;;6.72;100.00;98291.75;10413413;28;20056;-64
2022/01/29 16:57:28;;;;;;;0.65;0.60;;;;;;;6.86;100.00;98272.59;10416314;28;20071;-63
2022/01/29 17:02:32;;;;;;;1.33;0.70;;;;;;;6.93;100.00;98287.13;10382073;28;20045;-63
2022/01/29 17:07:38;;;;;;;0.93;0.70;;;;;;;6.90;100.00;98284.72;10369241;28;20041;-62
2022/01/29 17:12:45;;;;;;;1.02;0.52;;;;;;;6.99;100.00;98266.97;10373387;28;20128;-64
2022/01/29 17:17:49;;;;;;;0.80;0.50;;;;;;;7.08;100.00;98249.16;10369837;28;20038;-63
2022/01/29 17:22:55;;;;;;;0.57;0.57;;;;;;;7.06;100.00;98246.66;10366825;28;20041;-61
2022/01/29 17:28:01;;;;;;;0.63;0.63;;;;;;;7.02;100.00;98239.03;10366794;28;20042;-61
2022/01/29 17:33:05;;;;;;;0.40;0.40;;;;;;;7.02;100.00;98215.75;10366539;28;20594;-60
2022/01/29 17:38:10;;;;;;;0.60;0.60;;;;;;;6.97;100.00;98187.72;10367188;28;20056;-62
2022/01/29 17:43:15;;;;;;;1.27;0.50;;;;;;;6.88;100.00;98201.00;10369336;28;20046;-60
2022/01/29 17:48:19;;;;;;;1.13;0.77;;;;;;;6.79;100.00;98208.03;10372525;28;20041;-59
2022/01/29 17:53:22;;;;;;;0.30;0.30;;;;;;;6.89;100.00;98217.91;10370404;28;20452;-57
2022/01/29 17:58:27;;;;;;;0.43;0.40;;;;;;;6.90;100.00;98215.09;10366730;28;20466;-59
2022/01/29 18:03:31;;;;;;;1.17;0.30;;;;;;;6.84;100.00;98233.56;10362173;28;20125;-56
2022/01/29 18:08:35;;;;;;;0.50;0.50;;;;;;;6.76;100.00;98228.91;10362365;28;20049;-59
2022/01/29 18:13:41;;;;;;;0.30;0.30;;;;;;;6.63;100.00;98227.38;10363865;28;20045;-59
2022/01/29 18:18:44;;;;;;;1.33;0.45;;;;;;;6.33;100.00;98252.41;10366723;28;20077;-54
2022/01/29 18:23:48;;;;;;;0.50;0.50;;;;;;;6.23;100.00;98244.38;10370110;28;20124;-60
2022/01/29 18:28:53;;;;;;;0.40;0.40;;;;;;;6.28;100.00;98242.13;10364464;28;20046;-61
2022/01/29 18:33:57;;;;;;;0.50;0.50;;;;;;;6.43;100.00;98231.03;10364344;28;20045;-61
2022/01/29 18:39:00;;;;;;;0.38;0.30;;;;;;;6.44;100.00;98217.50;10370391;28;20511;-60
2022/01/29 18:44:05;;;;;;;0.30;0.30;;;;;;;6.49;100.00;98219.75;10376250;28;20045;-59
2022/01/29 18:49:08;;;;;;;0.30;0.30;;;;;;;6.54;100.00;98238.91;10374892;28;20132;-57
2022/01/29 18:54:11;;;;;;;2.08;0.40;;;;;;;6.45;100.00;98227.22;10378144;28;20485;-56
2022/01/29 18:59:16;;;;;;;0.47;0.40;;;;;;;6.58;100.00;98290.34;10360127;23;20052;-59
2022/01/29 19:04:19;;;;;;;2.05;0.45;;;;;;;6.66;100.00;98244.13;10391526;28;20045;-59
2022/01/29 19:09:23;;;;;;;1.17;0.40;;;;;;;6.62;100.00;98271.19;10373973;28;20046;-61
2022/01/29 19:14:27;;;;;;;2.38;0.60;;;;;;;6.67;100.00;98245.81;10368321;28;20044;-59
2022/01/29 19:19:31;;;;;;;1.55;0.70;;;;;;;6.79;100.00;98205.38;10368041;28;20038;-63
2022/01/29 19:24:34;;;;;;;1.67;0.70;;;;;;;6.98;100.00;98208.16;10366181;28;20060;-60
2022/01/29 19:29:39;;;;;;;1.15;0.70;;;;;;;7.19;100.00;98221.38;10367683;28;20042;-59
2022/01/29 19:34:42;;;;;;;0.60;0.50;;;;;;;7.24;100.00;98217.28;10368847;28;20133;-60
2022/01/29 19:39:45;;;;;;;1.30;0.60;;;;;;;7.18;100.00;98208.97;10370075;28;20045;-58
2022/01/29 19:44:49;;;;;;;1.23;0.55;;;;;;;7.25;100.00;98194.00;10366314;28;20132;-56
2022/01/29 19:49:53;;;;;;;1.23;0.60;;;;;;;7.29;100.00;98187.38;10366316;28;20952;-59
2022/01/29 19:54:56;;;;;;;1.23;0.57;;;;;;;7.32;100.00;98186.22;10360745;28;20038;-59
2022/01/29 20:00:01;;;;;;;0.80;0.60;;;;;;;7.45;100.00;98196.63;10360998;28;20057;-58
2022/01/29 20:05:08;;;;;;;0.98;0.50;;;;;;;7.34;100.00;98206.53;10361041;28;20053;-60
2022/01/29 20:10:12;;;;;;;1.15;0.70;;;;;;;7.30;100.00;98215.84;10356597;28;20572;-60
2022/01/29 20:15:16;;;;;;;2.72;0.68;;;;;;;7.29;100.00;98222.19;10357374;28;20091;-60
2022/01/29 20:20:21;;;;;;;1.67;0.70;;;;;;;7.20;100.00;98265.94;10358840;28;20121;-58
2022/01/29 20:25:27;;;;;;;2.25;0.80;;;;;;;7.32;100.00;98243.34;10358110;28;20057;-60
2022/01/29 20:30:32;;;;;;;1.90;0.98;;;;;;;7.32;100.00;98262.13;10356205;28;20054;-61
2022/01/29 20:35:35;;;;;;;4.38;1.13;;;;;;;7.43;100.00;98257.56;10357393;28;20060;-60
2022/01/29 20:40:38;;;;;;;3.78;1.00;;;;;;;7.39;100.00;98275.78;10359863;28;20058;-61
2022/01/29 20:45:43;;;;;;;2.80;0.90;;;;;;;7.39;100.00;98263.22;10360945;28;20053;-57
2022/01/29 20:50:48;;;;;;;2.10;1.02;;;;;;;7.47;100.00;98270.53;10356672;28;20455;-60
2022/01/29 20:55:51;;;;;;;3.50;1.35;;;;;;;7.31;100.00;98297.06;10358554;28;20124;-59
2022/01/29 21:00:56;;;;;;;3.15;1.25;;;;;;;7.15;100.00;98300.34;10358030;28;20045;-60
2022/01/29 21:05:59;;;;;;;4.03;1.15;;;;;;;7.08;100.00;98310.78;10356448;28;20045;-59
2022/01/29 21:11:03;;;;;;;3.00;1.15;;;;;;;7.09;100.00;98305.31;10356898;28;20556;-59
2022/01/29 21:16:08;;;;;;;4.45;1.13;;;;;;;7.05;100.00;98281.63;10355735;28;20052;-61
2022/01/29 21:21:11;;;;;;;4.30;1.23;;;;;;;6.96;100.00;98283.31;10356356;28;20133;-61
2022/01/29 21:26:14;;;;;;;5.40;1.30;;;;;;;7.05;100.00;98277.09;10356445;28;20046;-60
2022/01/29 21:31:18;;;;;;;2.92;1.05;;;;;;;6.96;100.00;98294.03;10360105;28;20046;-60
2022/01/29 21:36:21;;;;;;;5.03;1.08;;;;;;;6.87;100.00;98279.63;10357763;28;20145;-60
2022/01/29 21:41:24;;;;;;;6.97;1.20;;;;;;;6.75;100.00;98272.72;10358929;28;20462;-59
2022/01/29 21:46:29;;;;;;;5.93;1.13;;;;;;;6.70;100.00;98262.44;10356623;28;20042;-61
2022/01/29 21:51:33;;;;;;;6.85;1.20;;;;;;;6.56;100.00;98265.53;10354360;28;20498;-61
2022/01/29 21:56:36;;;;;;;5.35;1.20;;;;;;;6.56;100.00;98276.25;10354650;28;20049;-61
2022/01/29 22:01:40;;;;;;;5.90;1.30;;;;;;;6.61;100.00;98272.16;10357871;28;20049;-64
2022/01/29 22:06:44;;;;;;;5.60;1.20;;;;;;;6.62;100.00;98254.28;10357811;28;20061;-61
2022/01/29 22:11:47;;;;;;;6.72;1.50;;;;;;;6.73;100.00;98256.81;10358674;28;20059;-58
2022/01/29 22:16:52;;;;;;;5.55;1.40;;;;;;;6.62;100.00;98281.06;10374346;28;20120;-59
2022/01/29 22:21:55;;;;;;;8.70;1.85;;;;;;;6.77;100.00;98274.28;10365473;28;20120;-59
2022/01/29 22:26:58;;;;;;;11.10;2.05;;;;;;;6.73;100.00;98278.25;10376170;28;20117;-61
2022/01/29 22:32:02;;;;;;;8.95;1.67;;;;;;;6.76;100.00;98272.56;10373218;28;20052;-59
2022/01/29 22:37:07;;;;;;;9.73;1.85;;;;;;;6.74;100.00;98285.28;10372521;28;20058;-60
2022/01/29 22:42:25;;;;;;;6.53;1.52;;;;;;;6.81;100.00;98276.69;10358594;28;20045;-58
2022/01/29 22:47:30;;;;;;;7.32;1.55;;;;;;;6.72;100.00;98273.88;10356772;28;20433;-61
2022/01/29 22:52:36;;;;;;;8.13;1.90;;;;;;;6.74;100.00;98266.53;10358722;28;20079;-60
2022/01/29 22:57:39;;;;;;;11.75;1.80;;;;;;;6.66;100.00;98252.16;10354250;28;20052;-61
2022/01/29 23:02:43;;;;;;;8.50;1.88;;;;;;;6.70;100.00;98291.91;10360841;28;20486;-60
2022/01/29 23:07:47;;;;;;;6.60;1.48;;;;;;;6.69;100.00;98282.19;10359287;28;20077;-60
2022/01/29 23:12:58;;;;;;;6.68;1.50;;;;;;;6.66;100.00;98261.03;10361992;28;20045;-60
2022/01/29 23:18:54;;;;;;;6.63;1.50;;;;;;;6.62;100.00;98314.00;10365778;28;20520;-61
2022/01/29 23:24:04;;;;;;;6.97;1.50;;;;;;;6.52;100.00;98297.09;10363795;28;20040;-61
2022/01/29 23:29:10;;;;;;;6.05;1.30;;;;;;;6.57;100.00;98291.31;10364479;28;20536;-61
2022/01/29 23:34:21;;;;;;;8.32;1.42;;;;;;;6.47;100.00;98304.69;10369621;28;20042;-59
2022/01/29 23:39:32;;;;;;;5.88;1.20;;;;;;;6.42;100.00;98294.38;10367005;28;20352;-60
2022/01/29 23:49:58;;;;;;;5.85;1.42;;;;;;;6.28;100.00;98284.09;10361025;28;20467;-60
2022/01/29 23:55:03;;;;;;;8.18;1.65;;;;;;;6.34;100.00;98326.34;10363491;28;20052;-61
